Flight Track Log - Related Links

Times and Time Zones

All times are in EDT time to prevent confusion due to time zone crossing. See the ASQ5678 flight status page for this flight to view local times or setup timezone preferences in your user account.

Time Position Orientation Groundspeed Altitude Reporting Facility
EDT Latitude Longitude Course Direction KTS MPH feet Rate Location/Type
Thu 02:00:22 PM 29.9617 -95.3436 107° East 162 186 800  Level Houston Center
Thu 02:01:35 PM 29.9422 -95.2689 107° East 232 267 2,600 1,667 Climbing Houston Center
Thu 02:02:10 PM 29.9358 -95.2306 101° East 236 272 3,800 866 Climbing Houston Center
Thu 02:03:12 PM 29.9275 -95.1472 97° East 257 296 4,000 581 Climbing Houston Center
Thu 02:04:14 PM 29.9283 -95.0664 89° East 255 293 5,000 1,839 Climbing Houston Center
Thu 02:05:16 PM 29.9350 -94.9842 85° East 256 295 7,800 2,129 Climbing Houston Center
Thu 02:06:18 PM 29.9422 -94.9061 84° East 246 283 9,400 2,323 Climbing Houston Center
Thu 02:07:20 PM 29.9519 -94.8028 84° East 265 305 12,600 1,887 Climbing Houston Center
Thu 02:08:22 PM 29.9606 -94.7114 84° East 280 322 13,300 816 Climbing Houston Center
Thu 02:09:25 PM 29.9703 -94.6014 84° East 334 384 14,300 1,104 Climbing Houston Center
Thu 02:10:27 PM 29.9811 -94.4878 84° East 350 403 15,600 1,355 Climbing Houston Center
Thu 02:11:29 PM 29.9914 -94.3533 85° East 361 415 17,100 1,161 Climbing Houston Center
Thu 02:12:31 PM 30.0036 -94.2378 83° East 364 419 18,000 1,161 Climbing Houston Center
Thu 02:13:33 PM 30.0197 -94.1192 81° East 372 428 19,500 1,403 Climbing Houston Center
Thu 02:14:35 PM 30.0336 -94.0019 82° East 371 427 20,900 726 Climbing Houston Center
Thu 02:15:37 PM 30.0492 -93.8800 82° East 379 436 21,000 48 Climbing Houston Center
Thu 02:16:39 PM 30.0650 -93.7456 82° East 417 480 21,000  Level Houston Center
Thu 02:17:42 PM 30.0850 -93.5817 82° East 433 498 21,000  Level Houston Center
Thu 02:18:44 PM 30.0914 -93.4417 87° East 444 511 21,000  Level Houston Center
Thu 02:19:46 PM 30.0961 -93.3019 88° East 443 510 21,000  Level Houston Center
Thu 02:20:48 PM 30.1000 -93.1631 88° East 439 505 21,000 -242 Level Houston Center
Thu 02:21:50 PM 30.1042 -92.9997 88° East 431 496 20,500 -1,548 Descending Houston Center
Thu 02:22:52 PM 30.1086 -92.8647 88° East 425 489 17,800 -2,613 Descending Houston Center
Thu 02:23:54 PM 30.1114 -92.7394 89° East 404 465 15,100 -2,613 Descending Houston Center
Thu 02:24:56 PM 30.1106 -92.6178 90° East 388 447 12,400 -2,688 Descending Houston Center
Thu 02:25:59 PM 30.0914 -92.5069 101° East 361 415 9,500 -2,064 Descending Houston Center
Thu 02:27:01 PM 30.0778 -92.4067 99° East 300 345 8,100 -2,177 Descending Houston Center
Thu 02:28:03 PM 30.0711 -92.3328 96° East 254 292 5,000 -2,661 Descending Houston Center
Thu 02:29:05 PM 30.0867 -92.2572 77° East 242 278 2,600 -1,355 Descending Houston Center
Thu 02:30:07 PM 30.1006 -92.1844 78° East 240 276 2,200 -387 Descending Houston Center

Login

Don't have an account? Register now (free) for customized features, flight alerts, and more!